sensor_id;sensor_type;location;lat;lon;timestamp;P1;durP1;ratioP1;P2;durP2;ratioP2
75342;SDS011;63936;51.006;13.764;2023-05-01T00:00:04;11;;;6;;
75342;SDS011;63936;51.006;13.764;2023-05-01T00:02:03;11;;;6;;
75342;SDS011;63936;51.006;13.764;2023-05-01T00:04:02;12;;;7;;
75342;SDS011;63936;51.006;13.764;2023-05-01T00:06:03;14;;;7;;
75342;SDS011;63936;51.006;13.764;2023-05-01T00:08:04;13;;;7;;
75342;SDS011;63936;51.006;13.764;2023-05-01T00:10:06;13;;;7;;
75342;SDS011;63936;51.006;13.764;2023-05-01T00:12:03;18;;;8;;
75342;SDS011;63936;51.006;13.764;2023-05-01T00:14:03;17;;;9;;
75342;SDS011;63936;51.006;13.764;2023-05-01T00:16:06;14;;;7;;
75342;SDS011;63936;51.006;13.764;2023-05-01T00:18:03;14;;;7;;
75342;SDS011;63936;51.006;13.764;2023-05-01T00:20:08;13;;;7;;
75342;SDS011;63936;51.006;13.764;2023-05-01T00:22:03;16;;;7;;
75342;SDS011;63936;51.006;13.764;2023-05-01T00:24:04;12;;;7;;
75342;SDS011;63936;51.006;13.764;2023-05-01T00:26:07;13;;;7;;
75342;SDS011;63936;51.006;13.764;2023-05-01T00:28:03;13;;;8;;
75342;SDS011;63936;51.006;13.764;2023-05-01T00:30:19;13;;;8;;
75342;SDS011;63936;51.006;13.764;2023-05-01T00:32:03;13;;;7;;
75342;SDS011;63936;51.006;13.764;2023-05-01T00:34:02;12;;;7;;
75342;SDS011;63936;51.006;13.764;2023-05-01T00:36:03;14;;;7;;
75342;SDS011;63936;51.006;13.764;2023-05-01T00:38:02;14;;;7;;
75342;SDS011;63936;51.006;13.764;2023-05-01T00:40:04;13;;;7;;
75342;SDS011;63936;51.006;13.764;2023-05-01T00:42:02;12;;;7;;
75342;SDS011;63936;51.006;13.764;2023-05-01T00:44:03;12;;;7;;
75342;SDS011;63936;51.006;13.764;2023-05-01T00:46:03;12;;;7;;
75342;SDS011;63936;51.006;13.764;2023-05-01T00:48:03;13;;;7;;
75342;SDS011;63936;51.006;13.764;2023-05-01T00:50:04;13;;;7;;
75342;SDS011;63936;51.006;13.764;2023-05-01T00:52:03;14;;;7;;
75342;SDS011;63936;51.006;13.764;2023-05-01T00:54:04;13;;;7;;
75342;SDS011;63936;51.006;13.764;2023-05-01T00:56:01;13;;;7;;
75342;SDS011;63936;51.006;13.764;2023-05-01T00:58:01;15;;;7;;
75342;SDS011;63936;51.006;13.764;2023-05-01T01:00:03;14;;;7;;
75342;SDS011;63936;51.006;13.764;2023-05-01T01:02:01;12;;;7;;
75342;SDS011;63936;51.006;13.764;2023-05-01T01:04:01;14;;;7;;
75342;SDS011;63936;51.006;13.764;2023-05-01T01:06:04;13;;;7;;
75342;SDS011;63936;51.006;13.764;2023-05-01T01:08:03;12;;;6;;
75342;SDS011;63936;51.006;13.764;2023-05-01T01:10:04;13;;;7;;
75342;SDS011;63936;51.006;13.764;2023-05-01T01:12:04;12;;;7;;
75342;SDS011;63936;51.006;13.764;2023-05-01T01:14:02;12;;;7;;
75342;SDS011;63936;51.006;13.764;2023-05-01T01:16:03;13;;;7;;
75342;SDS011;63936;51.006;13.764;2023-05-01T01:18:04;13;;;8;;
75342;SDS011;63936;51.006;13.764;2023-05-01T01:20:09;12;;;7;;
75342;SDS011;63936;51.006;13.764;2023-05-01T01:22:03;13;;;7;;
75342;SDS011;63936;51.006;13.764;2023-05-01T01:24:09;13;;;7;;
75342;SDS011;63936;51.006;13.764;2023-05-01T01:26:10;15;;;8;;
75342;SDS011;63936;51.006;13.764;2023-05-01T01:28:06;18;;;8;;
75342;SDS011;63936;51.006;13.764;2023-05-01T01:30:07;15;;;8;;
75342;SDS011;63936;51.006;13.764;2023-05-01T01:32:02;15;;;8;;
75342;SDS011;63936;51.006;13.764;2023-05-01T01:34:02;14;;;8;;
75342;SDS011;63936;51.006;13.764;2023-05-01T01:36:04;13;;;8;;
75342;SDS011;63936;51.006;13.764;2023-05-01T01:38:03;14;;;8;;
75342;SDS011;63936;51.006;13.764;2023-05-01T01:40:02;15;;;8;;
75342;SDS011;63936;51.006;13.764;2023-05-01T01:42:01;14;;;7;;
75342;SDS011;63936;51.006;13.764;2023-05-01T01:44:03;12;;;7;;
75342;SDS011;63936;51.006;13.764;2023-05-01T01:46:02;12;;;7;;
75342;SDS011;63936;51.006;13.764;2023-05-01T01:48:02;12;;;7;;
75342;SDS011;63936;51.006;13.764;2023-05-01T01:50:03;11;;;6;;
75342;SDS011;63936;51.006;13.764;2023-05-01T01:52:01;12;;;7;;
75342;SDS011;63936;51.006;13.764;2023-05-01T01:54:01;12;;;7;;
75342;SDS011;63936;51.006;13.764;2023-05-01T01:56:02;13;;;8;;
75342;SDS011;63936;51.006;13.764;2023-05-01T01:58:02;14;;;8;;
75342;SDS011;63936;51.006;13.764;2023-05-01T02:00:03;13;;;7;;
75342;SDS011;63936;51.006;13.764;2023-05-01T02:02:01;15;;;8;;
75342;SDS011;63936;51.006;13.764;2023-05-01T02:04:01;14;;;9;;
75342;SDS011;63936;51.006;13.764;2023-05-01T02:06:02;17;;;9;;
75342;SDS011;63936;51.006;13.764;2023-05-01T02:08:01;17;;;10;;
75342;SDS011;63936;51.006;13.764;2023-05-01T02:10:02;19;;;11;;
75342;SDS011;63936;51.006;13.764;2023-05-01T02:12:01;18;;;11;;
75342;SDS011;63936;51.006;13.764;2023-05-01T02:14:01;17;;;10;;
75342;SDS011;63936;51.006;13.764;2023-05-01T02:16:01;17;;;10;;
75342;SDS011;63936;51.006;13.764;2023-05-01T02:18:01;21;;;12;;
75342;SDS011;63936;51.006;13.764;2023-05-01T02:20:02;21;;;11;;
75342;SDS011;63936;51.006;13.764;2023-05-01T02:22:01;17;;;10;;
75342;SDS011;63936;51.006;13.764;2023-05-01T02:24:01;19;;;11;;
75342;SDS011;63936;51.006;13.764;2023-05-01T02:26:02;23;;;11;;
75342;SDS011;63936;51.006;13.764;2023-05-01T02:28:02;19;;;11;;
75342;SDS011;63936;51.006;13.764;2023-05-01T02:30:03;18;;;11;;
75342;SDS011;63936;51.006;13.764;2023-05-01T02:32:01;19;;;11;;
75342;SDS011;63936;51.006;13.764;2023-05-01T02:34:01;18;;;11;;
75342;SDS011;63936;51.006;13.764;2023-05-01T02:36:01;22;;;12;;
75342;SDS011;63936;51.006;13.764;2023-05-01T02:38:01;19;;;12;;
75342;SDS011;63936;51.006;13.764;2023-05-01T02:40:02;17;;;11;;
75342;SDS011;63936;51.006;13.764;2023-05-01T02:42:01;18;;;10;;
75342;SDS011;63936;51.006;13.764;2023-05-01T02:44:02;20;;;11;;
75342;SDS011;63936;51.006;13.764;2023-05-01T02:46:02;19;;;10;;
75342;SDS011;63936;51.006;13.764;2023-05-01T02:48:02;18;;;11;;
75342;SDS011;63936;51.006;13.764;2023-05-01T02:50:02;18;;;11;;
75342;SDS011;63936;51.006;13.764;2023-05-01T02:52:01;18;;;11;;
75342;SDS011;63936;51.006;13.764;2023-05-01T02:54:01;18;;;11;;
75342;SDS011;63936;51.006;13.764;2023-05-01T02:56:01;17;;;11;;
75342;SDS011;63936;51.006;13.764;2023-05-01T02:58:01;19;;;10;;
75342;SDS011;63936;51.006;13.764;2023-05-01T03:00:02;19;;;11;;
75342;SDS011;63936;51.006;13.764;2023-05-01T03:02:02;21;;;11;;
75342;SDS011;63936;51.006;13.764;2023-05-01T03:04:02;26;;;12;;
75342;SDS011;63936;51.006;13.764;2023-05-01T03:06:02;20;;;11;;
75342;SDS011;63936;51.006;13.764;2023-05-01T03:08:01;20;;;11;;
75342;SDS011;63936;51.006;13.764;2023-05-01T03:10:01;16;;;9;;
75342;SDS011;63936;51.006;13.764;2023-05-01T03:12:01;15;;;9;;
75342;SDS011;63936;51.006;13.764;2023-05-01T03:14:01;16;;;9;;
75342;SDS011;63936;51.006;13.764;2023-05-01T03:16:02;16;;;9;;
75342;SDS011;63936;51.006;13.764;2023-05-01T03:18:02;16;;;9;;
75342;SDS011;63936;51.006;13.764;2023-05-01T03:20:03;16;;;9;;
75342;SDS011;63936;51.006;13.764;2023-05-01T03:22:01;16;;;10;;
75342;SDS011;63936;51.006;13.764;2023-05-01T03:24:01;16;;;9;;
75342;SDS011;63936;51.006;13.764;2023-05-01T03:26:01;16;;;9;;
75342;SDS011;63936;51.006;13.764;2023-05-01T03:28:01;15;;;9;;
75342;SDS011;63936;51.006;13.764;2023-05-01T03:30:02;14;;;9;;
75342;SDS011;63936;51.006;13.764;2023-05-01T03:32:01;16;;;9;;
75342;SDS011;63936;51.006;13.764;2023-05-01T03:34:01;20;;;10;;
75342;SDS011;63936;51.006;13.764;2023-05-01T03:36:01;21;;;10;;
75342;SDS011;63936;51.006;13.764;2023-05-01T03:38:01;17;;;9;;
75342;SDS011;63936;51.006;13.764;2023-05-01T03:40:02;17;;;9;;
75342;SDS011;63936;51.006;13.764;2023-05-01T03:42:01;18;;;9;;
75342;SDS011;63936;51.006;13.764;2023-05-01T03:44:01;17;;;9;;
75342;SDS011;63936;51.006;13.764;2023-05-01T03:46:01;17;;;9;;
75342;SDS011;63936;51.006;13.764;2023-05-01T03:48:01;18;;;9;;
75342;SDS011;63936;51.006;13.764;2023-05-01T03:50:02;14;;;7;;
75342;SDS011;63936;51.006;13.764;2023-05-01T03:52:01;13;;;7;;
75342;SDS011;63936;51.006;13.764;2023-05-01T03:54:01;15;;;8;;
75342;SDS011;63936;51.006;13.764;2023-05-01T03:56:01;14;;;9;;
75342;SDS011;63936;51.006;13.764;2023-05-01T03:58:01;10;;;6;;
75342;SDS011;63936;51.006;13.764;2023-05-01T04:00:03;12;;;7;;
75342;SDS011;63936;51.006;13.764;2023-05-01T04:02:03;16;;;8;;
75342;SDS011;63936;51.006;13.764;2023-05-01T04:04:05;22;;;9;;
75342;SDS011;63936;51.006;13.764;2023-05-01T04:06:03;13;;;8;;
75342;SDS011;63936;51.006;13.764;2023-05-01T04:08:01;19;;;9;;
75342;SDS011;63936;51.006;13.764;2023-05-01T04:10:05;20;;;10;;
75342;SDS011;63936;51.006;13.764;2023-05-01T04:12:02;22;;;11;;
75342;SDS011;63936;51.006;13.764;2023-05-01T04:14:02;11;;;6;;
75342;SDS011;63936;51.006;13.764;2023-05-01T04:16:02;18;;;10;;
75342;SDS011;63936;51.006;13.764;2023-05-01T04:18:02;20;;;10;;
75342;SDS011;63936;51.006;13.764;2023-05-01T04:20:03;13;;;8;;
75342;SDS011;63936;51.006;13.764;2023-05-01T04:22:02;13;;;8;;
75342;SDS011;63936;51.006;13.764;2023-05-01T04:24:01;15;;;8;;
75342;SDS011;63936;51.006;13.764;2023-05-01T04:26:01;15;;;8;;
75342;SDS011;63936;51.006;13.764;2023-05-01T04:28:02;12;;;8;;
75342;SDS011;63936;51.006;13.764;2023-05-01T04:30:03;14;;;9;;
75342;SDS011;63936;51.006;13.764;2023-05-01T04:32:02;14;;;9;;
75342;SDS011;63936;51.006;13.764;2023-05-01T04:34:02;15;;;9;;
75342;SDS011;63936;51.006;13.764;2023-05-01T04:36:02;15;;;9;;
75342;SDS011;63936;51.006;13.764;2023-05-01T04:38:02;17;;;10;;
75342;SDS011;63936;51.006;13.764;2023-05-01T04:40:03;15;;;8;;
75342;SDS011;63936;51.006;13.764;2023-05-01T04:42:02;13;;;8;;
75342;SDS011;63936;51.006;13.764;2023-05-01T04:44:02;14;;;8;;
75342;SDS011;63936;51.006;13.764;2023-05-01T04:46:02;16;;;9;;
75342;SDS011;63936;51.006;13.764;2023-05-01T04:48:01;14;;;9;;
75342;SDS011;63936;51.006;13.764;2023-05-01T04:50:03;16;;;10;;
75342;SDS011;63936;51.006;13.764;2023-05-01T04:52:02;15;;;8;;
75342;SDS011;63936;51.006;13.764;2023-05-01T04:54:02;14;;;8;;
75342;SDS011;63936;51.006;13.764;2023-05-01T04:56:02;13;;;8;;
75342;SDS011;63936;51.006;13.764;2023-05-01T04:58:01;13;;;8;;
75342;SDS011;63936;51.006;13.764;2023-05-01T05:00:04;14;;;8;;
75342;SDS011;63936;51.006;13.764;2023-05-01T05:02:02;13;;;8;;
75342;SDS011;63936;51.006;13.764;2023-05-01T05:04:01;17;;;9;;
75342;SDS011;63936;51.006;13.764;2023-05-01T05:06:02;16;;;9;;
75342;SDS011;63936;51.006;13.764;2023-05-01T05:08:02;14;;;9;;
75342;SDS011;63936;51.006;13.764;2023-05-01T05:10:03;15;;;9;;
75342;SDS011;63936;51.006;13.764;2023-05-01T05:12:02;16;;;10;;
75342;SDS011;63936;51.006;13.764;2023-05-01T05:14:02;15;;;10;;
75342;SDS011;63936;51.006;13.764;2023-05-01T05:16:02;17;;;9;;
75342;SDS011;63936;51.006;13.764;2023-05-01T05:18:02;17;;;11;;
75342;SDS011;63936;51.006;13.764;2023-05-01T05:20:04;17;;;13;;
75342;SDS011;63936;51.006;13.764;2023-05-01T05:22:01;18;;;13;;
75342;SDS011;63936;51.006;13.764;2023-05-01T05:24:01;18;;;12;;
75342;SDS011;63936;51.006;13.764;2023-05-01T05:26:02;17;;;12;;
75342;SDS011;63936;51.006;13.764;2023-05-01T05:28:01;18;;;11;;
75342;SDS011;63936;51.006;13.764;2023-05-01T05:30:07;18;;;12;;
75342;SDS011;63936;51.006;13.764;2023-05-01T05:32:02;17;;;11;;
75342;SDS011;63936;51.006;13.764;2023-05-01T05:34:02;17;;;12;;
75342;SDS011;63936;51.006;13.764;2023-05-01T05:36:02;18;;;13;;
75342;SDS011;63936;51.006;13.764;2023-05-01T05:38:01;17;;;11;;
75342;SDS011;63936;51.006;13.764;2023-05-01T05:40:03;17;;;11;;
75342;SDS011;63936;51.006;13.764;2023-05-01T05:42:01;17;;;12;;
75342;SDS011;63936;51.006;13.764;2023-05-01T05:44:01;18;;;12;;
75342;SDS011;63936;51.006;13.764;2023-05-01T05:46:02;18;;;12;;
75342;SDS011;63936;51.006;13.764;2023-05-01T05:48:01;19;;;13;;
75342;SDS011;63936;51.006;13.764;2023-05-01T05:50:03;17;;;12;;
75342;SDS011;63936;51.006;13.764;2023-05-01T05:52:01;18;;;13;;
75342;SDS011;63936;51.006;13.764;2023-05-01T05:54:01;19;;;14;;
75342;SDS011;63936;51.006;13.764;2023-05-01T05:56:01;17;;;13;;
75342;SDS011;63936;51.006;13.764;2023-05-01T05:58:01;17;;;14;;
75342;SDS011;63936;51.006;13.764;2023-05-01T06:00:02;17;;;14;;
75342;SDS011;63936;51.006;13.764;2023-05-01T06:02:02;17;;;14;;
75342;SDS011;63936;51.006;13.764;2023-05-01T06:04:02;20;;;14;;
75342;SDS011;63936;51.006;13.764;2023-05-01T06:06:02;20;;;14;;
75342;SDS011;63936;51.006;13.764;2023-05-01T06:08:02;20;;;15;;
75342;SDS011;63936;51.006;13.764;2023-05-01T06:10:06;20;;;15;;
75342;SDS011;63936;51.006;13.764;2023-05-01T06:12:03;19;;;14;;
75342;SDS011;63936;51.006;13.764;2023-05-01T06:14:02;19;;;14;;
75342;SDS011;63936;51.006;13.764;2023-05-01T06:16:03;18;;;14;;
75342;SDS011;63936;51.006;13.764;2023-05-01T06:18:03;18;;;14;;
75342;SDS011;63936;51.006;13.764;2023-05-01T06:20:04;20;;;14;;
75342;SDS011;63936;51.006;13.764;2023-05-01T06:22:06;19;;;15;;
75342;SDS011;63936;51.006;13.764;2023-05-01T06:24:02;19;;;15;;
75342;SDS011;63936;51.006;13.764;2023-05-01T06:26:02;19;;;15;;
75342;SDS011;63936;51.006;13.764;2023-05-01T06:28:02;19;;;15;;
75342;SDS011;63936;51.006;13.764;2023-05-01T06:30:05;18;;;14;;
75342;SDS011;63936;51.006;13.764;2023-05-01T06:32:02;17;;;14;;
75342;SDS011;63936;51.006;13.764;2023-05-01T06:34:02;18;;;14;;
75342;SDS011;63936;51.006;13.764;2023-05-01T06:36:02;21;;;15;;
75342;SDS011;63936;51.006;13.764;2023-05-01T06:38:01;21;;;15;;
75342;SDS011;63936;51.006;13.764;2023-05-01T06:40:03;19;;;14;;
75342;SDS011;63936;51.006;13.764;2023-05-01T06:42:03;19;;;14;;
75342;SDS011;63936;51.006;13.764;2023-05-01T06:44:02;19;;;14;;
75342;SDS011;63936;51.006;13.764;2023-05-01T06:46:02;20;;;15;;
75342;SDS011;63936;51.006;13.764;2023-05-01T06:48:02;18;;;14;;
75342;SDS011;63936;51.006;13.764;2023-05-01T06:50:01;19;;;14;;
75342;SDS011;63936;51.006;13.764;2023-05-01T06:52:01;19;;;13;;
75342;SDS011;63936;51.006;13.764;2023-05-01T06:54:01;21;;;14;;
75342;SDS011;63936;51.006;13.764;2023-05-01T06:56:01;17;;;13;;
75342;SDS011;63936;51.006;13.764;2023-05-01T06:58:01;20;;;14;;
75342;SDS011;63936;51.006;13.764;2023-05-01T07:00:03;18;;;12;;
75342;SDS011;63936;51.006;13.764;2023-05-01T07:02:01;17;;;13;;
75342;SDS011;63936;51.006;13.764;2023-05-01T07:04:01;16;;;12;;
75342;SDS011;63936;51.006;13.764;2023-05-01T07:06:02;16;;;12;;
75342;SDS011;63936;51.006;13.764;2023-05-01T07:08:02;16;;;11;;
75342;SDS011;63936;51.006;13.764;2023-05-01T07:10:01;15;;;11;;
75342;SDS011;63936;51.006;13.764;2023-05-01T07:12:01;15;;;11;;
75342;SDS011;63936;51.006;13.764;2023-05-01T07:14:01;16;;;11;;
75342;SDS011;63936;51.006;13.764;2023-05-01T07:16:01;13;;;10;;
75342;SDS011;63936;51.006;13.764;2023-05-01T07:18:01;14;;;10;;
75342;SDS011;63936;51.006;13.764;2023-05-01T07:20:01;14;;;9;;
75342;SDS011;63936;51.006;13.764;2023-05-01T07:22:01;14;;;9;;
75342;SDS011;63936;51.006;13.764;2023-05-01T07:24:01;15;;;10;;
75342;SDS011;63936;51.006;13.764;2023-05-01T07:26:01;14;;;9;;
75342;SDS011;63936;51.006;13.764;2023-05-01T07:28:01;13;;;9;;
75342;SDS011;63936;51.006;13.764;2023-05-01T07:30:03;13;;;9;;
75342;SDS011;63936;51.006;13.764;2023-05-01T07:32:01;13;;;8;;
75342;SDS011;63936;51.006;13.764;2023-05-01T07:34:01;12;;;8;;
75342;SDS011;63936;51.006;13.764;2023-05-01T07:36:02;12;;;8;;
75342;SDS011;63936;51.006;13.764;2023-05-01T07:38:02;11;;;8;;
75342;SDS011;63936;51.006;13.764;2023-05-01T07:40:01;12;;;7;;
75342;SDS011;63936;51.006;13.764;2023-05-01T07:42:01;12;;;7;;
75342;SDS011;63936;51.006;13.764;2023-05-01T07:44:01;13;;;7;;
75342;SDS011;63936;51.006;13.764;2023-05-01T07:46:01;12;;;6;;
75342;SDS011;63936;51.006;13.764;2023-05-01T07:48:01;10;;;5;;
75342;SDS011;63936;51.006;13.764;2023-05-01T07:50:02;11;;;5;;
75342;SDS011;63936;51.006;13.764;2023-05-01T07:52:01;9;;;5;;
75342;SDS011;63936;51.006;13.764;2023-05-01T07:54:01;8;;;5;;
75342;SDS011;63936;51.006;13.764;2023-05-01T07:56:03;10;;;6;;
75342;SDS011;63936;51.006;13.764;2023-05-01T07:58:01;9;;;5;;
75342;SDS011;63936;51.006;13.764;2023-05-01T08:00:03;9;;;4;;
75342;SDS011;63936;51.006;13.764;2023-05-01T08:02:01;10;;;5;;
75342;SDS011;63936;51.006;13.764;2023-05-01T08:04:01;8;;;5;;
75342;SDS011;63936;51.006;13.764;2023-05-01T08:06:02;10;;;5;;
75342;SDS011;63936;51.006;13.764;2023-05-01T08:08:01;9;;;5;;
75342;SDS011;63936;51.006;13.764;2023-05-01T08:10:02;8;;;4;;
75342;SDS011;63936;51.006;13.764;2023-05-01T08:12:01;8;;;4;;
75342;SDS011;63936;51.006;13.764;2023-05-01T08:14:01;8;;;4;;
75342;SDS011;63936;51.006;13.764;2023-05-01T08:16:01;8;;;4;;
75342;SDS011;63936;51.006;13.764;2023-05-01T08:18:01;9;;;4;;
75342;SDS011;63936;51.006;13.764;2023-05-01T08:20:03;9;;;4;;
75342;SDS011;63936;51.006;13.764;2023-05-01T08:22:02;8;;;4;;
75342;SDS011;63936;51.006;13.764;2023-05-01T08:24:02;8;;;4;;
75342;SDS011;63936;51.006;13.764;2023-05-01T08:26:01;9;;;5;;
75342;SDS011;63936;51.006;13.764;2023-05-01T08:28:01;10;;;4;;
75342;SDS011;63936;51.006;13.764;2023-05-01T08:30:02;9;;;4;;
75342;SDS011;63936;51.006;13.764;2023-05-01T08:32:02;9;;;4;;
75342;SDS011;63936;51.006;13.764;2023-05-01T08:34:01;10;;;4;;
75342;SDS011;63936;51.006;13.764;2023-05-01T08:36:01;8;;;4;;
75342;SDS011;63936;51.006;13.764;2023-05-01T08:38:01;8;;;4;;
75342;SDS011;63936;51.006;13.764;2023-05-01T08:40:02;7;;;4;;
75342;SDS011;63936;51.006;13.764;2023-05-01T08:42:01;10;;;4;;
75342;SDS011;63936;51.006;13.764;2023-05-01T08:44:01;8;;;4;;
75342;SDS011;63936;51.006;13.764;2023-05-01T08:46:01;9;;;4;;
75342;SDS011;63936;51.006;13.764;2023-05-01T08:48:03;8;;;4;;
75342;SDS011;63936;51.006;13.764;2023-05-01T08:50:03;8;;;4;;
75342;SDS011;63936;51.006;13.764;2023-05-01T08:52:01;8;;;4;;
75342;SDS011;63936;51.006;13.764;2023-05-01T08:54:01;8;;;4;;
75342;SDS011;63936;51.006;13.764;2023-05-01T08:56:01;10;;;4;;
75342;SDS011;63936;51.006;13.764;2023-05-01T08:58:01;10;;;5;;
75342;SDS011;63936;51.006;13.764;2023-05-01T09:00:03;9;;;4;;
75342;SDS011;63936;51.006;13.764;2023-05-01T09:02:02;9;;;4;;
75342;SDS011;63936;51.006;13.764;2023-05-01T09:04:02;7;;;4;;
75342;SDS011;63936;51.006;13.764;2023-05-01T09:06:01;8;;;4;;
75342;SDS011;63936;51.006;13.764;2023-05-01T09:08:01;9;;;5;;
75342;SDS011;63936;51.006;13.764;2023-05-01T09:10:02;8;;;4;;
75342;SDS011;63936;51.006;13.764;2023-05-01T09:12:04;10;;;5;;
75342;SDS011;63936;51.006;13.764;2023-05-01T09:14:02;10;;;5;;
75342;SDS011;63936;51.006;13.764;2023-05-01T09:16:02;8;;;4;;
75342;SDS011;63936;51.006;13.764;2023-05-01T09:18:01;8;;;5;;
75342;SDS011;63936;51.006;13.764;2023-05-01T09:20:03;8;;;5;;
75342;SDS011;63936;51.006;13.764;2023-05-01T09:22:01;9;;;5;;
75342;SDS011;63936;51.006;13.764;2023-05-01T09:24:01;10;;;5;;
75342;SDS011;63936;51.006;13.764;2023-05-01T09:26:03;10;;;5;;
75342;SDS011;63936;51.006;13.764;2023-05-01T09:28:03;7;;;4;;
75342;SDS011;63936;51.006;13.764;2023-05-01T09:30:03;9;;;5;;
75342;SDS011;63936;51.006;13.764;2023-05-01T09:32:10;7;;;4;;
75342;SDS011;63936;51.006;13.764;2023-05-01T09:34:02;8;;;5;;
75342;SDS011;63936;51.006;13.764;2023-05-01T09:36:01;10;;;5;;
75342;SDS011;63936;51.006;13.764;2023-05-01T09:38:01;9;;;5;;
75342;SDS011;63936;51.006;13.764;2023-05-01T09:40:02;11;;;4;;
75342;SDS011;63936;51.006;13.764;2023-05-01T09:42:01;10;;;5;;
75342;SDS011;63936;51.006;13.764;2023-05-01T09:44:01;9;;;5;;
75342;SDS011;63936;51.006;13.764;2023-05-01T09:46:02;9;;;5;;
75342;SDS011;63936;51.006;13.764;2023-05-01T09:48:09;10;;;5;;
75342;SDS011;63936;51.006;13.764;2023-05-01T09:50:02;9;;;5;;
75342;SDS011;63936;51.006;13.764;2023-05-01T09:52:09;10;;;5;;
75342;SDS011;63936;51.006;13.764;2023-05-01T09:54:02;9;;;5;;
75342;SDS011;63936;51.006;13.764;2023-05-01T09:56:01;9;;;4;;
75342;SDS011;63936;51.006;13.764;2023-05-01T09:58:01;8;;;4;;
75342;SDS011;63936;51.006;13.764;2023-05-01T10:00:03;7;;;4;;
75342;SDS011;63936;51.006;13.764;2023-05-01T10:02:01;7;;;4;;
75342;SDS011;63936;51.006;13.764;2023-05-01T10:04:01;7;;;4;;
75342;SDS011;63936;51.006;13.764;2023-05-01T10:06:01;8;;;4;;
75342;SDS011;63936;51.006;13.764;2023-05-01T10:08:01;8;;;4;;
75342;SDS011;63936;51.006;13.764;2023-05-01T10:10:18;9;;;4;;
75342;SDS011;63936;51.006;13.764;2023-05-01T10:12:01;9;;;4;;
75342;SDS011;63936;51.006;13.764;2023-05-01T10:14:05;8;;;4;;
75342;SDS011;63936;51.006;13.764;2023-05-01T10:16:02;8;;;4;;
75342;SDS011;63936;51.006;13.764;2023-05-01T10:18:02;8;;;4;;
75342;SDS011;63936;51.006;13.764;2023-05-01T10:20:02;8;;;4;;
75342;SDS011;63936;51.006;13.764;2023-05-01T10:22:02;8;;;4;;
75342;SDS011;63936;51.006;13.764;2023-05-01T10:24:01;7;;;4;;
75342;SDS011;63936;51.006;13.764;2023-05-01T10:26:01;6;;;3;;
75342;SDS011;63936;51.006;13.764;2023-05-01T10:28:02;10;;;3;;
75342;SDS011;63936;51.006;13.764;2023-05-01T10:30:03;9;;;3;;
75342;SDS011;63936;51.006;13.764;2023-05-01T10:32:01;7;;;3;;
75342;SDS011;63936;51.006;13.764;2023-05-01T10:34:01;6;;;3;;
75342;SDS011;63936;51.006;13.764;2023-05-01T10:36:01;6;;;3;;
75342;SDS011;63936;51.006;13.764;2023-05-01T10:38:02;7;;;3;;
75342;SDS011;63936;51.006;13.764;2023-05-01T10:40:42;8;;;3;;
75342;SDS011;63936;51.006;13.764;2023-05-01T10:42:02;7;;;3;;
75342;SDS011;63936;51.006;13.764;2023-05-01T10:44:33;7;;;3;;
75342;SDS011;63936;51.006;13.764;2023-05-01T10:46:32;6;;;3;;
75342;SDS011;63936;51.006;13.764;2023-05-01T10:48:01;7;;;3;;
75342;SDS011;63936;51.006;13.764;2023-05-01T10:50:02;7;;;3;;
75342;SDS011;63936;51.006;13.764;2023-05-01T10:52:02;7;;;3;;
75342;SDS011;63936;51.006;13.764;2023-05-01T10:54:33;7;;;3;;
75342;SDS011;63936;51.006;13.764;2023-05-01T10:56:01;8;;;3;;
75342;SDS011;63936;51.006;13.764;2023-05-01T10:58:01;8;;;3;;
75342;SDS011;63936;51.006;13.764;2023-05-01T11:00:10;8;;;3;;
75342;SDS011;63936;51.006;13.764;2023-05-01T11:02:01;6;;;3;;
75342;SDS011;63936;51.006;13.764;2023-05-01T11:04:02;6;;;3;;
75342;SDS011;63936;51.006;13.764;2023-05-01T11:06:04;8;;;3;;
75342;SDS011;63936;51.006;13.764;2023-05-01T11:08:34;8;;;3;;
75342;SDS011;63936;51.006;13.764;2023-05-01T11:10:02;6;;;3;;
75342;SDS011;63936;51.006;13.764;2023-05-01T11:12:02;8;;;3;;
75342;SDS011;63936;51.006;13.764;2023-05-01T11:14:02;7;;;3;;
75342;SDS011;63936;51.006;13.764;2023-05-01T11:16:21;6;;;3;;
75342;SDS011;63936;51.006;13.764;2023-05-01T11:18:02;9;;;3;;
75342;SDS011;63936;51.006;13.764;2023-05-01T11:20:02;9;;;3;;
75342;SDS011;63936;51.006;13.764;2023-05-01T11:22:01;7;;;3;;
75342;SDS011;63936;51.006;13.764;2023-05-01T11:24:02;8;;;3;;
75342;SDS011;63936;51.006;13.764;2023-05-01T11:26:02;7;;;3;;
75342;SDS011;63936;51.006;13.764;2023-05-01T11:28:02;6;;;3;;
75342;SDS011;63936;51.006;13.764;2023-05-01T11:30:02;6;;;3;;
75342;SDS011;63936;51.006;13.764;2023-05-01T11:32:01;7;;;3;;
75342;SDS011;63936;51.006;13.764;2023-05-01T11:34:01;9;;;3;;
75342;SDS011;63936;51.006;13.764;2023-05-01T11:36:01;7;;;3;;
75342;SDS011;63936;51.006;13.764;2023-05-01T11:38:01;7;;;3;;
75342;SDS011;63936;51.006;13.764;2023-05-01T11:40:03;7;;;3;;
75342;SDS011;63936;51.006;13.764;2023-05-01T11:42:08;6;;;3;;
75342;SDS011;63936;51.006;13.764;2023-05-01T11:44:01;6;;;3;;
75342;SDS011;63936;51.006;13.764;2023-05-01T11:46:01;8;;;3;;
75342;SDS011;63936;51.006;13.764;2023-05-01T11:48:01;8;;;3;;
75342;SDS011;63936;51.006;13.764;2023-05-01T11:50:02;8;;;3;;
75342;SDS011;63936;51.006;13.764;2023-05-01T11:52:02;6;;;2;;
75342;SDS011;63936;51.006;13.764;2023-05-01T11:54:02;6;;;2;;
75342;SDS011;63936;51.006;13.764;2023-05-01T11:56:01;7;;;3;;
75342;SDS011;63936;51.006;13.764;2023-05-01T11:58:01;7;;;3;;
75342;SDS011;63936;51.006;13.764;2023-05-01T12:00:02;6;;;2;;
75342;SDS011;63936;51.006;13.764;2023-05-01T12:02:01;7;;;3;;
75342;SDS011;63936;51.006;13.764;2023-05-01T12:04:01;7;;;3;;
75342;SDS011;63936;51.006;13.764;2023-05-01T12:06:01;6;;;3;;
75342;SDS011;63936;51.006;13.764;2023-05-01T12:08:05;6;;;3;;
75342;SDS011;63936;51.006;13.764;2023-05-01T12:10:02;7;;;3;;
75342;SDS011;63936;51.006;13.764;2023-05-01T12:12:01;8;;;3;;
75342;SDS011;63936;51.006;13.764;2023-05-01T12:14:01;7;;;3;;
75342;SDS011;63936;51.006;13.764;2023-05-01T12:16:01;7;;;3;;
75342;SDS011;63936;51.006;13.764;2023-05-01T12:18:01;8;;;3;;
75342;SDS011;63936;51.006;13.764;2023-05-01T12:20:02;7;;;2;;
75342;SDS011;63936;51.006;13.764;2023-05-01T12:22:04;6;;;2;;
75342;SDS011;63936;51.006;13.764;2023-05-01T12:24:06;7;;;3;;
75342;SDS011;63936;51.006;13.764;2023-05-01T12:26:01;6;;;2;;
75342;SDS011;63936;51.006;13.764;2023-05-01T12:28:01;6;;;2;;
75342;SDS011;63936;51.006;13.764;2023-05-01T12:30:02;6;;;2;;
75342;SDS011;63936;51.006;13.764;2023-05-01T12:32:01;8;;;2;;
75342;SDS011;63936;51.006;13.764;2023-05-01T12:34:02;8;;;2;;
75342;SDS011;63936;51.006;13.764;2023-05-01T12:36:07;6;;;2;;
75342;SDS011;63936;51.006;13.764;2023-05-01T12:38:08;5;;;2;;
75342;SDS011;63936;51.006;13.764;2023-05-01T12:40:02;5;;;2;;
75342;SDS011;63936;51.006;13.764;2023-05-01T12:42:01;6;;;2;;
75342;SDS011;63936;51.006;13.764;2023-05-01T12:44:01;6;;;2;;
75342;SDS011;63936;51.006;13.764;2023-05-01T12:46:02;6;;;2;;
75342;SDS011;63936;51.006;13.764;2023-05-01T12:48:01;6;;;2;;
75342;SDS011;63936;51.006;13.764;2023-05-01T12:50:02;6;;;2;;